Time;durP1;ratioP1;P1;durP2;ratioP2;P2;SDS_P1;SDS_P2;PMS_P1;PMS_P2;Temp;Humidity;BMP_temperature;BMP_pressure;BME280_temperature;BME280_humidity;BME280_pressure;Samples;Min_cycle;Max_cycle;Signal;HPM_P1;HPM_P2
2022/04/20 00:01:46;;;;;;;9.25;4.60;;;7.30;99.90;;;;;;5054869;28;20344;-86
2022/04/20 00:04:12;;;;;;;7.20;4.57;;;7.20;99.90;;;;;;5063569;28;20067;-85
2022/04/20 00:06:56;;;;;;;8.85;4.80;;;7.20;99.90;;;;;;5036790;28;20498;-87
2022/04/20 00:09:22;;;;;;;7.30;4.47;;;7.20;99.90;;;;;;5037116;28;20053;-85
2022/04/20 00:11:48;;;;;;;10.35;4.57;;;7.10;99.90;;;;;;5068449;28;20048;-85
2022/04/20 00:14:14;;;;;;;6.15;4.15;;;7.10;99.90;;;;;;5044531;28;20049;-85
2022/04/20 00:16:39;;;;;;;6.18;4.50;;;7.10;99.90;;;;;;5037475;28;20388;-85
2022/04/20 00:19:05;;;;;;;8.27;4.82;;;7.00;99.90;;;;;;5055094;28;20045;-85
2022/04/20 00:25:12;;;;;;;7.93;4.40;;;7.00;99.90;;;;;;5068308;28;20063;-84
2022/04/20 00:27:38;;;;;;;5.90;4.13;;;6.90;99.90;;;;;;5054048;28;20048;-86
2022/04/20 00:30:08;;;;;;;7.13;4.22;;;7.00;99.90;;;;;;5052963;28;20445;-86
2022/04/20 00:32:34;;;;;;;10.73;4.00;;;7.00;99.90;;;;;;5037074;28;20127;-85
2022/04/20 00:35:00;;;;;;;7.47;4.05;;;7.00;99.90;;;;;;5036898;28;20088;-85
2022/04/20 00:37:27;;;;;;;6.53;3.90;;;7.00;99.90;;;;;;5036516;28;20087;-91
2022/04/20 00:39:52;;;;;;;10.13;3.90;;;7.00;99.90;;;;;;5054406;28;20375;-85
2022/04/20 00:42:21;;;;;;;4.95;3.67;;;7.00;99.90;;;;;;5034782;28;20127;-85
2022/04/20 00:44:47;;;;;;;9.13;4.13;;;7.10;99.90;;;;;;5036584;28;20045;-84
2022/04/20 00:47:16;;;;;;;7.07;3.90;;;7.10;99.90;;;;;;5037055;28;20113;-84
2022/04/20 00:53:22;;;;;;;9.18;4.00;;;7.10;99.90;;;;;;5053735;28;20124;-85
2022/04/20 00:55:48;;;;;;;7.78;4.00;;;7.00;99.90;;;;;;5035852;28;20128;-86
2022/04/20 00:58:13;;;;;;;7.10;4.25;;;7.10;99.90;;;;;;5035965;28;20052;-84
2022/04/20 01:00:39;;;;;;;6.78;4.07;;;7.10;99.90;;;;;;5031208;28;20048;-84
2022/04/20 01:03:06;;;;;;;8.82;4.40;;;7.00;99.90;;;;;;5053798;28;20045;-85
2022/04/20 01:05:31;;;;;;;7.20;4.07;;;7.00;99.90;;;;;;5036071;28;20411;-86
2022/04/20 01:07:58;;;;;;;7.22;3.97;;;7.00;99.90;;;;;;5036105;28;20064;-85
2022/04/20 01:10:23;;;;;;;9.23;4.28;;;7.00;99.90;;;;;;5057466;28;20045;-84
2022/04/20 01:12:49;;;;;;;8.75;4.60;;;7.00;99.90;;;;;;5056463;28;20373;-84
2022/04/20 01:15:17;;;;;;;9.15;4.22;;;7.00;99.90;;;;;;5073823;28;20048;-84
2022/04/20 01:17:43;;;;;;;7.32;4.53;;;7.00;99.90;;;;;;5055083;28;20080;-84
2022/04/20 01:20:16;;;;;;;6.55;4.35;;;7.00;99.90;;;;;;5055522;28;20075;-86
2022/04/20 01:22:42;;;;;;;11.30;4.55;;;7.00;99.90;;;;;;5020421;28;20056;-84
2022/04/20 01:25:08;;;;;;;9.05;4.80;;;7.00;99.90;;;;;;5052916;28;20095;-85
2022/04/20 01:27:35;;;;;;;8.50;4.55;;;6.90;99.90;;;;;;5034077;28;20124;-84
2022/04/20 01:30:02;;;;;;;6.70;4.10;;;6.80;99.90;;;;;;5035191;28;20053;-85
2022/04/20 01:32:28;;;;;;;9.07;4.60;;;7.00;99.90;;;;;;5053441;28;20068;-85
2022/04/20 01:34:54;;;;;;;6.47;4.25;;;6.90;99.90;;;;;;5055145;28;20083;-84
2022/04/20 01:37:19;;;;;;;7.65;4.47;;;6.80;99.90;;;;;;5055142;28;20063;-85
2022/04/20 01:39:45;;;;;;;7.75;4.47;;;6.80;99.90;;;;;;5055127;28;20056;-84
2022/04/20 01:42:11;;;;;;;8.90;4.40;;;6.70;99.90;;;;;;5055644;28;20048;-85
2022/04/20 01:44:37;;;;;;;8.02;3.95;;;6.70;99.90;;;;;;5015332;28;20046;-85
2022/04/20 01:47:02;;;;;;;9.88;4.82;;;6.70;99.90;;;;;;5031725;28;20049;-85
2022/04/20 01:49:28;;;;;;;8.13;4.72;;;6.70;99.90;;;;;;5015428;28;20102;-86
2022/04/20 01:51:54;;;;;;;8.93;4.88;;;6.70;99.90;;;;;;5015487;28;20057;-85
2022/04/20 01:54:20;;;;;;;8.77;5.20;;;6.70;99.90;;;;;;5046969;28;20053;-85
2022/04/20 01:56:47;;;;;;;8.07;4.63;;;6.70;99.90;;;;;;5032059;28;20057;-84
2022/04/20 01:59:14;;;;;;;8.57;4.93;;;6.60;99.90;;;;;;5045070;28;20094;-84
2022/04/20 02:04:40;;;;;;;7.07;4.90;;;6.60;99.90;;;;;;4992041;28;20054;-84
2022/04/20 02:07:06;;;;;;;11.32;4.95;;;6.60;99.90;;;;;;4993625;28;20057;-85
2022/04/20 02:09:31;;;;;;;10.80;4.85;;;6.50;99.90;;;;;;5010554;28;20058;-84
2022/04/20 02:11:57;;;;;;;8.65;5.18;;;6.50;99.90;;;;;;5011005;28;20508;-84
2022/04/20 02:14:22;;;;;;;8.27;5.03;;;6.50;99.90;;;;;;4977826;28;20045;-84
2022/04/20 02:16:48;;;;;;;7.25;4.90;;;6.50;99.90;;;;;;5010883;28;20400;-84
2022/04/20 02:19:14;;;;;;;9.65;4.78;;;6.50;99.90;;;;;;5011020;28;20054;-84
2022/04/20 02:21:39;;;;;;;7.72;4.47;;;6.50;99.90;;;;;;4994577;28;20580;-85
2022/04/20 02:24:05;;;;;;;10.50;4.88;;;6.60;99.90;;;;;;4978599;28;20038;-84
2022/04/20 02:26:31;;;;;;;6.70;4.97;;;6.50;99.90;;;;;;4994186;28;20499;-84
2022/04/20 02:28:57;;;;;;;7.70;5.25;;;6.70;99.90;;;;;;4993330;28;20054;-85
2022/04/20 02:31:22;;;;;;;8.00;5.00;;;6.40;99.90;;;;;;4993774;28;20704;-84
2022/04/20 02:33:48;;;;;;;10.13;5.18;;;6.50;99.90;;;;;;5010661;28;20141;-87
2022/04/20 02:36:14;;;;;;;8.85;5.20;;;6.30;99.90;;;;;;4990501;28;20407;-84
2022/04/20 02:38:40;;;;;;;7.28;5.00;;;6.40;99.90;;;;;;5012143;28;20057;-84
2022/04/20 02:41:07;;;;;;;9.43;5.13;;;6.30;99.90;;;;;;5015091;28;20418;-84
2022/04/20 02:43:32;;;;;;;11.77;5.28;;;6.20;99.90;;;;;;5033378;28;20045;-84
2022/04/20 02:45:58;;;;;;;11.32;4.78;;;6.20;99.90;;;;;;5024998;28;20034;-84
2022/04/20 02:48:24;;;;;;;10.13;4.57;;;6.20;99.90;;;;;;5015072;28;20483;-84
2022/04/20 02:54:30;;;;;;;9.63;4.88;;;6.10;99.90;;;;;;5072403;28;20073;-84
2022/04/20 02:56:56;;;;;;;9.32;5.13;;;6.00;99.90;;;;;;5051579;28;20124;-85
2022/04/20 02:59:22;;;;;;;6.03;4.68;;;6.20;99.90;;;;;;5017699;28;20065;-84
2022/04/20 03:01:47;;;;;;;9.10;4.72;;;6.00;99.90;;;;;;5052096;28;20119;-89
2022/04/20 03:04:13;;;;;;;7.55;4.90;;;6.00;99.90;;;;;;5034031;28;20053;-84
2022/04/20 03:06:39;;;;;;;7.45;4.75;;;6.00;99.90;;;;;;5041308;28;20097;-84
2022/04/20 03:09:05;;;;;;;9.45;5.70;;;5.90;99.90;;;;;;5037302;28;20056;-84
2022/04/20 03:11:31;;;;;;;10.57;5.07;;;5.90;99.90;;;;;;5071915;28;20048;-85
2022/04/20 03:13:56;;;;;;;8.63;5.45;;;5.90;99.90;;;;;;5071677;28;20040;-84
2022/04/20 03:16:23;;;;;;;9.38;5.68;;;5.80;99.90;;;;;;5070664;28;20040;-85
2022/04/20 03:18:49;;;;;;;11.02;5.68;;;5.80;99.90;;;;;;5033080;28;20103;-83
2022/04/20 03:21:15;;;;;;;8.98;5.32;;;5.80;99.90;;;;;;5018723;28;20419;-84
2022/04/20 03:23:41;;;;;;;10.07;5.60;;;5.70;99.90;;;;;;5018465;28;20042;-86
2022/04/20 03:26:07;;;;;;;7.70;5.40;;;5.70;99.90;;;;;;5018261;28;20037;-84
2022/04/20 03:28:33;;;;;;;9.95;5.40;;;5.60;99.90;;;;;;5030503;28;20092;-84
2022/04/20 03:30:59;;;;;;;9.57;5.65;;;5.50;99.90;;;;;;5038362;28;20084;-84
2022/04/20 03:33:25;;;;;;;8.98;5.20;;;5.50;99.90;;;;;;5055605;28;20095;-84
2022/04/20 03:35:51;;;;;;;8.93;5.50;;;5.40;99.90;;;;;;5053717;28;20508;-85
2022/04/20 03:38:16;;;;;;;10.18;6.13;;;5.40;99.90;;;;;;5038689;28;20050;-84
2022/04/20 03:40:42;;;;;;;10.25;5.93;;;5.40;99.90;;;;;;5038050;28;20141;-84
2022/04/20 03:43:08;;;;;;;10.00;4.93;;;5.30;99.90;;;;;;5020903;28;20061;-84
2022/04/20 03:45:34;;;;;;;9.90;5.47;;;5.20;99.90;;;;;;5054423;28;20052;-84
2022/04/20 03:47:59;;;;;;;8.68;5.68;;;5.20;99.90;;;;;;5054537;28;20041;-84
2022/04/20 03:50:25;;;;;;;9.25;5.88;;;5.20;99.90;;;;;;5056962;28;20057;-90
2022/04/20 03:52:51;;;;;;;10.85;5.53;;;5.10;99.90;;;;;;5055702;28;20049;-85
2022/04/20 03:55:17;;;;;;;11.65;6.18;;;5.00;99.90;;;;;;5038136;28;20386;-84
2022/04/20 03:57:43;;;;;;;8.50;5.63;;;5.00;99.90;;;;;;5054836;28;20087;-85
2022/04/20 04:00:09;;;;;;;8.90;5.82;;;4.90;99.90;;;;;;5056718;28;20055;-84
2022/04/20 04:02:38;;;;;;;13.02;6.20;;;4.90;99.90;;;;;;5057743;28;20041;-84
2022/04/20 04:05:25;;;;;;;11.55;6.38;;;5.00;99.90;;;;;;5057708;28;20052;-85
2022/04/20 04:07:51;;;;;;;10.85;6.13;;;4.80;99.90;;;;;;5071602;28;20102;-83
2022/04/20 04:10:18;;;;;;;13.48;6.15;;;4.70;99.90;;;;;;5036953;28;20139;-89
2022/04/20 04:12:44;;;;;;;9.98;5.95;;;4.70;99.90;;;;;;5037316;28;20056;-84
2022/04/20 04:15:10;;;;;;;11.05;5.57;;;4.70;99.90;;;;;;5024841;28;20056;-84
2022/04/20 04:17:36;;;;;;;11.05;5.47;;;4.70;99.90;;;;;;5041781;28;20044;-84
2022/04/20 04:20:02;;;;;;;8.23;5.43;;;4.80;99.90;;;;;;5057862;28;20508;-84
2022/04/20 04:22:28;;;;;;;8.23;5.50;;;4.80;99.90;;;;;;5041451;28;20076;-84
2022/04/20 04:24:54;;;;;;;11.60;5.63;;;4.80;99.90;;;;;;5076196;28;20137;-85
2022/04/20 04:27:21;;;;;;;10.60;5.22;;;4.80;99.90;;;;;;5057660;28;20409;-83
2022/04/20 04:29:46;;;;;;;9.93;5.03;;;4.80;99.90;;;;;;5042842;28;20053;-84
2022/04/20 04:32:15;;;;;;;9.15;5.28;;;4.80;99.90;;;;;;5037077;28;20179;-83
2022/04/20 04:34:40;;;;;;;9.82;5.20;;;4.90;99.90;;;;;;5025453;28;20184;-84
2022/04/20 04:37:09;;;;;;;8.90;5.50;;;4.90;99.90;;;;;;5057730;28;20133;-84
2022/04/20 04:39:34;;;;;;;7.85;5.45;;;4.80;99.90;;;;;;5030663;28;20486;-85
2022/04/20 04:42:03;;;;;;;8.82;5.60;;;4.80;99.90;;;;;;5049336;28;20048;-84
2022/04/20 04:44:29;;;;;;;9.27;5.65;;;4.80;99.90;;;;;;5073418;28;20092;-84
2022/04/20 04:49:39;;;;;;;10.65;5.80;;;4.80;99.90;;;;;;5048616;28;20045;-84
2022/04/20 04:52:11;;;;;;;9.90;5.18;;;4.60;99.90;;;;;;5022530;28;20049;-84
2022/04/20 04:54:39;;;;;;;10.35;5.72;;;4.80;99.90;;;;;;5040836;28;20065;-84
2022/04/20 04:57:07;;;;;;;11.55;6.07;;;4.70;99.90;;;;;;5016624;28;20034;-84
2022/04/20 04:59:34;;;;;;;10.57;6.38;;;4.80;99.90;;;;;;5044693;28;20405;-84
2022/04/20 05:02:00;;;;;;;9.25;6.03;;;5.00;99.90;;;;;;5034097;28;20487;-84
2022/04/20 05:04:26;;;;;;;10.75;5.90;;;4.80;99.90;;;;;;5053691;28;20075;-87
2022/04/20 05:06:51;;;;;;;9.82;5.90;;;4.90;99.90;;;;;;5035322;28;20052;-84
2022/04/20 05:09:17;;;;;;;8.35;5.90;;;4.90;99.90;;;;;;5035468;28;20119;-83
2022/04/20 05:11:45;;;;;;;8.27;6.03;;;5.00;99.90;;;;;;5053586;28;20094;-83
2022/04/20 05:14:13;;;;;;;8.82;6.28;;;5.00;99.90;;;;;;5053619;28;20049;-84
2022/04/20 05:16:39;;;;;;;10.73;5.65;;;5.00;99.90;;;;;;5035945;28;20083;-83
2022/04/20 05:19:04;;;;;;;12.32;5.85;;;5.10;99.90;;;;;;5036028;28;20048;-83
2022/04/20 05:21:30;;;;;;;11.77;6.22;;;5.10;99.90;;;;;;5019097;28;20102;-83
2022/04/20 05:23:58;;;;;;;11.73;6.22;;;5.10;99.90;;;;;;5053491;28;20450;-87
2022/04/20 05:26:25;;;;;;;12.75;6.25;;;5.20;99.90;;;;;;5035624;28;20052;-84
2022/04/20 05:28:51;;;;;;;8.38;5.80;;;5.20;99.90;;;;;;5035936;28;20496;-83
2022/04/20 05:31:17;;;;;;;11.52;5.88;;;5.30;99.90;;;;;;5053448;28;20132;-90
2022/04/20 05:33:42;;;;;;;9.95;5.80;;;5.40;99.90;;;;;;5035806;28;20053;-86
2022/04/20 05:36:09;;;;;;;9.73;5.97;;;5.40;99.90;;;;;;5035413;28;20475;-84
2022/04/20 05:44:04;;;;;;;11.70;5.50;;;5.60;99.90;;;;;;5035180;28;20049;-83
2022/04/20 05:46:30;;;;;;;9.10;5.50;;;5.70;99.90;;;;;;5035358;28;20045;-83
2022/04/20 05:48:56;;;;;;;8.48;6.13;;;5.70;99.90;;;;;;5035330;28;20053;-85
2022/04/20 05:51:22;;;;;;;10.15;6.40;;;5.80;99.90;;;;;;5051633;28;20068;-84
2022/04/20 05:53:47;;;;;;;7.50;5.30;;;5.80;99.90;;;;;;5036080;28;20055;-84
2022/04/20 05:56:13;;;;;;;9.38;5.63;;;5.90;99.90;;;;;;5052916;28;20102;-84
2022/04/20 05:58:39;;;;;;;11.80;5.72;;;6.00;99.90;;;;;;5052902;28;20059;-84
2022/04/20 06:01:05;;;;;;;10.27;5.10;;;6.10;99.90;;;;;;5052753;28;20041;-84
2022/04/20 06:03:30;;;;;;;9.70;5.45;;;6.10;99.90;;;;;;5035258;28;20509;-84
2022/04/20 06:05:56;;;;;;;8.75;5.20;;;6.20;99.90;;;;;;5034601;28;20368;-84
2022/04/20 06:08:21;;;;;;;9.35;5.22;;;6.30;99.90;;;;;;5035082;28;20045;-84
2022/04/20 06:10:47;;;;;;;12.02;5.70;;;6.40;99.90;;;;;;5035312;28;20045;-84
2022/04/20 06:13:13;;;;;;;9.82;5.47;;;6.50;99.90;;;;;;5018713;28;20053;-84
2022/04/20 06:15:38;;;;;;;11.57;5.63;;;6.60;99.90;;;;;;5035146;28;20048;-84
2022/04/20 06:18:04;;;;;;;9.68;5.70;;;6.70;99.90;;;;;;5035081;28;20088;-87
2022/04/20 06:20:30;;;;;;;9.38;5.10;;;6.80;99.90;;;;;;5051388;28;20398;-85
2022/04/20 06:22:55;;;;;;;9.63;5.18;;;6.90;99.90;;;;;;5052425;28;20044;-85
2022/04/20 06:25:21;;;;;;;8.00;5.05;;;7.10;99.90;;;;;;5052588;28;20045;-85
2022/04/20 06:27:47;;;;;;;10.05;5.43;;;7.10;99.90;;;;;;5034987;28;20049;-85
2022/04/20 06:30:12;;;;;;;10.07;4.82;;;7.30;99.90;;;;;;5035017;28;20422;-84
2022/04/20 06:32:38;;;;;;;8.45;5.18;;;7.40;99.90;;;;;;5035000;28;20478;-85
2022/04/20 06:35:04;;;;;;;9.00;4.88;;;7.60;99.90;;;;;;5034892;28;20080;-85
2022/04/20 06:37:30;;;;;;;7.07;4.68;;;7.70;99.90;;;;;;5034055;28;20061;-85
2022/04/20 06:39:56;;;;;;;6.43;5.00;;;7.80;99.90;;;;;;5052677;28;20376;-85
2022/04/20 06:42:23;;;;;;;12.27;5.03;;;8.00;99.90;;;;;;5052588;28;20091;-85
2022/04/20 06:44:49;;;;;;;9.55;4.78;;;8.00;99.90;;;;;;5018299;28;20049;-85
2022/04/20 06:47:15;;;;;;;6.32;3.95;;;8.20;99.90;;;;;;5052150;28;20060;-85
2022/04/20 06:49:42;;;;;;;13.13;4.53;;;8.30;99.90;;;;;;5050342;28;20122;-85
2022/04/20 07:00:20;;;;;;;8.25;3.88;;;8.70;99.90;;;;;;5055858;28;20513;-87
2022/04/20 07:02:46;;;;;;;7.70;4.30;;;8.90;99.90;;;;;;5056354;28;20044;-85
2022/04/20 07:05:11;;;;;;;6.30;3.75;;;9.10;99.90;;;;;;5056148;28;20080;-85
2022/04/20 07:07:37;;;;;;;5.75;3.42;;;9.20;99.90;;;;;;5054953;28;20061;-85
2022/04/20 07:10:04;;;;;;;7.10;3.90;;;9.30;99.90;;;;;;5055596;28;20057;-85
2022/04/20 07:12:29;;;;;;;7.38;3.60;;;9.40;99.90;;;;;;5055852;28;20508;-86
2022/04/20 07:14:55;;;;;;;6.40;4.13;;;9.50;99.90;;;;;;5055855;28;20041;-86
2022/04/20 07:17:21;;;;;;;4.95;3.25;;;9.70;99.90;;;;;;5037992;28;20510;-85
2022/04/20 07:19:46;;;;;;;9.43;3.58;;;9.70;99.90;;;;;;5054848;28;20049;-85
2022/04/20 07:22:12;;;;;;;5.28;3.10;;;9.90;99.90;;;;;;5054098;28;20110;-85
2022/04/20 07:24:38;;;;;;;6.45;3.58;;;9.90;99.90;;;;;;5038100;28;20045;-85
2022/04/20 07:27:04;;;;;;;5.90;3.45;;;10.00;99.90;;;;;;5054561;28;20490;-86
2022/04/20 07:29:29;;;;;;;5.75;3.20;;;10.10;99.90;;;;;;5037758;28;20053;-85
2022/04/20 07:31:55;;;;;;;11.98;3.80;;;10.20;99.90;;;;;;5037495;28;20049;-87
2022/04/20 07:34:20;;;;;;;6.05;3.15;;;10.30;99.90;;;;;;5038228;28;20561;-85
2022/04/20 07:36:47;;;;;;;4.50;2.97;;;10.30;99.90;;;;;;5037374;28;20053;-85
2022/04/20 07:39:13;;;;;;;4.50;2.92;;;10.60;99.90;;;;;;5021471;28;20064;-86
2022/04/20 07:41:39;;;;;;;5.50;3.03;;;10.50;99.90;;;;;;5037547;28;20494;-85
2022/04/20 07:44:05;;;;;;;3.22;2.58;;;10.70;99.70;;;;;;5037811;28;20053;-85
2022/04/20 07:46:31;;;;;;;3.90;2.63;;;10.80;98.00;;;;;;5037320;28;20056;-85
2022/04/20 07:48:56;;;;;;;4.15;2.80;;;11.00;96.90;;;;;;5037566;28;20061;-86
2022/04/20 07:51:22;;;;;;;4.93;2.60;;;11.40;93.50;;;;;;5037681;28;20059;-86
2022/04/20 07:53:48;;;;;;;4.13;2.70;;;11.60;91.10;;;;;;5037485;28;20111;-86
2022/04/20 07:56:13;;;;;;;5.47;2.60;;;11.60;90.40;;;;;;5037523;28;20045;-85
2022/04/20 07:58:39;;;;;;;5.05;2.60;;;11.80;89.30;;;;;;5020717;28;20048;-86
2022/04/20 08:01:05;;;;;;;3.15;2.03;;;11.90;85.80;;;;;;5055144;28;20041;-86
2022/04/20 08:03:31;;;;;;;3.72;1.95;;;12.50;79.30;;;;;;5036621;28;20574;-86
2022/04/20 08:05:59;;;;;;;3.58;2.20;;;12.90;74.10;;;;;;5019643;28;20048;-86
2022/04/20 08:08:25;;;;;;;3.85;2.20;;;13.10;72.00;;;;;;5020480;28;20084;-84
2022/04/20 08:10:51;;;;;;;5.70;2.03;;;13.10;73.30;;;;;;5037711;28;20060;-85
2022/04/20 08:16:01;;;;;;;3.60;2.40;;;13.20;74.50;;;;;;5037143;28;20537;-87
2022/04/20 08:18:27;;;;;;;5.07;2.35;;;13.60;72.70;;;;;;5037543;28;20084;-86
2022/04/20 08:21:11;;;;;;;5.10;2.55;;;14.10;69.90;;;;;;5037410;28;20083;-85
2022/04/20 08:23:37;;;;;;;5.85;2.50;;;14.70;62.90;;;;;;5036857;28;20057;-85
2022/04/20 08:26:03;;;;;;;8.15;2.30;;;15.30;64.40;;;;;;5054625;28;20045;-84
2022/04/20 08:28:30;;;;;;;3.78;2.20;;;16.10;61.10;;;;;;5036709;28;20056;-86
2022/04/20 08:30:56;;;;;;;3.67;2.50;;;17.20;56.70;;;;;;5053369;28;20044;-85
2022/04/20 08:33:22;;;;;;;3.60;2.13;;;18.40;54.30;;;;;;5036951;28;20041;-85
2022/04/20 08:35:48;;;;;;;4.30;2.10;;;19.40;50.60;;;;;;5036703;28;20052;-85
2022/04/20 08:38:14;;;;;;;3.70;2.38;;;20.10;48.40;;;;;;5036851;28;20402;-88
2022/04/20 08:40:40;;;;;;;2.40;2.00;;;20.60;45.80;;;;;;5054546;28;20061;-87
2022/04/20 08:43:06;;;;;;;5.55;2.15;;;21.10;44.60;;;;;;5036614;28;20080;-85
2022/04/20 08:45:37;;;;;;;4.90;1.98;;;21.40;44.00;;;;;;5053936;28;20091;-84
2022/04/20 08:48:03;;;;;;;;;;;21.70;42.80;;;;;;5037306;28;20055;-85
2022/04/20 08:50:29;;;;;;;4.43;2.05;;;21.80;40.20;;;;;;5036625;28;19999;-86
2022/04/20 08:52:56;;;;;;;5.05;2.08;;;22.00;43.80;;;;;;5036341;28;20135;-86
2022/04/20 08:55:22;;;;;;;3.17;2.30;;;22.30;42.50;;;;;;5019763;28;20506;-85
2022/04/20 08:57:50;;;;;;;4.47;2.05;;;22.60;42.00;;;;;;5036086;28;20044;-87
2022/04/20 09:00:28;;;;;;;3.78;2.33;;;22.70;41.70;;;;;;5036045;28;20053;-86
2022/04/20 09:02:56;;;;;;;5.53;2.25;;;23.00;39.40;;;;;;5053276;28;20398;-86
2022/04/20 09:05:24;;;;;;;4.70;2.28;;;23.00;40.30;;;;;;5052752;28;20049;-86
2022/04/20 09:07:49;;;;;;;3.67;2.22;;;23.10;40.00;;;;;;5036514;28;20049;-87
2022/04/20 09:10:18;;;;;;;3.63;1.98;;;23.10;39.30;;;;;;5035847;28;20401;-85
2022/04/20 09:12:45;;;;;;;5.10;2.00;;;23.30;39.30;;;;;;5036132;28;20141;-86
2022/04/20 09:15:14;;;;;;;3.35;1.88;;;23.80;38.50;;;;;;5019893;28;20036;-86
2022/04/20 09:17:45;;;;;;;4.43;1.73;;;24.20;37.80;;;;;;5036027;28;20052;-86
2022/04/20 09:20:18;;;;;;;4.90;2.00;;;24.40;37.10;;;;;;5036341;28;20156;-85
2022/04/20 09:23:00;;;;;;;5.45;1.90;;;24.60;36.10;;;;;;5035722;28;20095;-86
2022/04/20 09:25:34;;;;;;;2.92;1.88;;;24.90;36.00;;;;;;5053609;28;20041;-86
2022/04/20 09:28:01;;;;;;;2.60;1.90;;;25.10;35.40;;;;;;5053678;28;20045;-86
2022/04/20 09:30:33;;;;;;;6.20;2.38;;;25.10;35.40;;;;;;5052451;28;20052;-89
2022/04/20 09:32:59;;;;;;;2.75;1.90;;;25.20;35.00;;;;;;5035726;28;20049;-87
2022/04/20 09:35:24;;;;;;;2.58;1.83;;;25.40;34.80;;;;;;5018970;28;20394;-86
2022/04/20 09:38:07;;;;;;;2.75;1.67;;;25.60;34.30;;;;;;5053231;28;20045;-86
2022/04/20 09:40:35;;;;;;;7.05;2.00;;;25.70;32.30;;;;;;5053367;28;20053;-86
2022/04/20 09:43:02;;;;;;;4.82;2.20;;;25.70;33.50;;;;;;5019474;28;20041;-86
2022/04/20 09:45:29;;;;;;;2.78;1.70;;;25.80;33.20;;;;;;5035288;28;20040;-87
2022/04/20 09:50:40;;;;;;;3.65;2.10;;;25.90;32.50;;;;;;5035299;28;20053;-86
2022/04/20 09:53:08;;;;;;;2.35;1.75;;;26.00;32.50;;;;;;5035596;28;20098;-87
2022/04/20 09:55:34;;;;;;;6.28;2.03;;;26.00;31.70;;;;;;5035544;28;20045;-86
2022/04/20 09:58:12;;;;;;;6.68;2.00;;;25.90;31.30;;;;;;5052938;28;20570;-89
2022/04/20 10:00:44;;;;;;;3.88;1.58;;;25.80;31.60;;;;;;5018988;28;20388;-87
2022/04/20 10:03:10;;;;;;;3.38;1.90;;;25.90;32.20;;;;;;5035409;28;20084;-87
2022/04/20 10:05:39;;;;;;;4.00;1.90;;;26.00;31.70;;;;;;5035339;28;20095;-87
2022/04/20 10:08:05;;;;;;;4.13;2.10;;;26.30;31.90;;;;;;5035263;28;20053;-86
2022/04/20 10:10:35;;;;;;;3.58;2.00;;;26.60;32.10;;;;;;5035080;28;20057;-87
2022/04/20 10:13:03;;;;;;;3.08;2.13;;;27.00;32.20;;;;;;5035469;28;20056;-88
2022/04/20 10:18:20;;;;;;;3.78;2.25;;;27.20;31.30;;;;;;5035512;28;20056;-87
2022/04/20 10:20:54;;;;;;;4.40;2.33;;;27.30;31.80;;;;;;5018767;28;20052;-87
2022/04/20 10:23:22;;;;;;;3.25;1.67;;;27.40;31.30;;;;;;5035022;28;20088;-88
2022/04/20 10:25:52;;;;;;;3.90;1.83;;;27.60;31.50;;;;;;5035250;28;20106;-87
2022/04/20 10:28:40;;;;;;;4.63;2.17;;;27.70;30.50;;;;;;5052068;28;20084;-86
2022/04/20 10:31:20;;;;;;;4.07;1.98;;;27.80;30.60;;;;;;5035184;28;20049;-87
2022/04/20 10:33:47;;;;;;;2.88;1.70;;;28.10;30.20;;;;;;5052897;28;20565;-88
2022/04/20 10:36:16;;;;;;;3.53;1.85;;;28.10;30.50;;;;;;5051134;28;20041;-87
2022/04/20 10:38:44;;;;;;;2.50;1.60;;;28.10;30.10;;;;;;5034768;28;20048;-86
2022/04/20 10:41:11;;;;;;;2.50;1.65;;;28.10;29.90;;;;;;5018597;28;20061;-86
2022/04/20 10:43:42;;;;;;;2.80;1.98;;;28.10;29.90;;;;;;5035284;28;20041;-86
2022/04/20 10:46:16;;;;;;;2.97;1.88;;;28.20;30.10;;;;;;5034661;28;20075;-88
2022/04/20 10:49:02;;;;;;;7.50;2.00;;;28.50;30.40;;;;;;5035082;28;20416;-87
2022/04/20 10:51:32;;;;;;;3.40;1.88;;;28.60;30.50;;;;;;5052271;28;20395;-86
2022/04/20 10:54:22;;;;;;;2.63;1.90;;;28.60;29.50;;;;;;5035055;28;20061;-87
2022/04/20 10:57:00;;;;;;;3.72;1.88;;;28.50;29.40;;;;;;5035204;28;20602;-93
2022/04/20 10:59:29;;;;;;;4.53;1.85;;;28.40;30.10;;;;;;5034920;28;20053;-86
2022/04/20 11:02:05;;;;;;;2.45;1.85;;;28.40;30.20;;;;;;5034795;28;20053;-87
2022/04/20 11:04:43;;;;;;;5.15;2.08;;;28.50;30.20;;;;;;5034936;28;20128;-89
2022/04/20 11:07:08;;;;;;;2.60;1.90;;;28.70;29.40;;;;;;5034075;28;20041;-88
2022/04/20 11:09:47;;;;;;;3.38;1.95;;;28.70;29.90;;;;;;5034408;28;20064;-87
2022/04/20 11:21:13;;;;;;;3.80;2.28;;;29.20;29.70;;;;;;5034498;28;20063;-86
2022/04/20 11:24:06;;;;;;;5.55;2.28;;;29.10;29.20;;;;;;5052289;28;20053;-87
2022/04/20 11:26:51;;;;;;;6.68;1.95;;;29.00;29.60;;;;;;5034500;28;20411;-87
2022/04/20 11:29:26;;;;;;;5.13;2.20;;;28.90;29.20;;;;;;5017445;28;20483;-87
2022/04/20 11:31:58;;;;;;;5.30;1.80;;;28.80;29.80;;;;;;5035101;28;20056;-87
2022/04/20 11:34:26;;;;;;;4.05;2.08;;;28.80;30.00;;;;;;5034946;28;20505;-87
2022/04/20 11:36:54;;;;;;;3.28;2.00;;;28.80;29.50;;;;;;5035293;28;20402;-87
2022/04/20 11:39:21;;;;;;;4.28;2.15;;;28.90;29.10;;;;;;5053184;28;20048;-87
2022/04/20 11:41:49;;;;;;;5.05;2.13;;;29.00;29.10;;;;;;5039180;28;20073;-87
2022/04/20 11:44:22;;;;;;;3.17;2.20;;;28.90;29.00;;;;;;5022218;28;20502;-86
2022/04/20 11:46:52;;;;;;;3.65;1.90;;;28.80;29.70;;;;;;5055773;28;20041;-87
2022/04/20 11:49:18;;;;;;;4.30;2.00;;;28.90;30.70;;;;;;5037726;28;20063;-87
2022/04/20 11:51:46;;;;;;;4.43;2.00;;;29.10;30.30;;;;;;5055415;28;20048;-86
2022/04/20 11:54:20;;;;;;;2.30;1.85;;;29.40;29.70;;;;;;5055412;28;20614;-86
2022/04/20 11:56:47;;;;;;;3.42;2.20;;;29.50;29.60;;;;;;5037967;28;20114;-86
2022/04/20 11:59:12;;;;;;;2.50;2.20;;;29.40;29.80;;;;;;5037672;28;20040;-87
2022/04/20 12:01:39;;;;;;;2.78;1.98;;;29.40;29.20;;;;;;5037966;28;20099;-86
2022/04/20 12:04:13;;;;;;;4.60;1.75;;;29.40;29.80;;;;;;5037264;28;20049;-86
2022/04/20 12:06:52;;;;;;;2.90;1.80;;;29.60;29.30;;;;;;5037363;28;20053;-86
2022/04/20 12:09:25;;;;;;;2.22;1.83;;;29.70;29.30;;;;;;5037256;28;20064;-87
2022/04/20 12:11:53;;;;;;;3.35;1.80;;;29.60;29.20;;;;;;5055949;28;20520;-86
2022/04/20 12:14:19;;;;;;;4.57;1.80;;;29.50;29.20;;;;;;5037988;28;20445;-88
2022/04/20 12:16:46;;;;;;;3.67;1.58;;;29.50;28.90;;;;;;5056127;28;20044;-87
2022/04/20 12:19:11;;;;;;;4.00;1.92;;;29.70;29.60;;;;;;5039165;28;20045;-85
2022/04/20 12:21:41;;;;;;;4.63;1.65;;;30.00;29.00;;;;;;5038330;28;20483;-86
2022/04/20 12:24:21;;;;;;;7.10;1.60;;;30.00;28.50;;;;;;5057069;28;20057;-87
2022/04/20 12:26:49;;;;;;;2.05;1.50;;;29.90;28.30;;;;;;5038906;28;20407;-86
2022/04/20 12:29:18;;;;;;;4.47;1.58;;;30.10;28.10;;;;;;5038733;28;20049;-86
2022/04/20 12:31:45;;;;;;;4.15;1.60;;;30.40;28.00;;;;;;5039019;28;20055;-86
2022/04/20 12:34:14;;;;;;;2.33;1.35;;;30.40;28.30;;;;;;5055876;28;20065;-87
2022/04/20 12:36:59;;;;;;;3.20;1.40;;;30.50;28.30;;;;;;5038320;28;20534;-85
2022/04/20 12:39:42;;;;;;;4.32;1.55;;;30.60;28.00;;;;;;5038429;28;20056;-86
2022/04/20 12:42:09;;;;;;;1.92;1.23;;;30.70;28.00;;;;;;5055671;28;20049;-85
2022/04/20 12:44:36;;;;;;;1.77;1.55;;;30.80;27.60;;;;;;5020963;28;20111;-85
2022/04/20 12:47:08;;;;;;;3.17;1.30;;;30.40;27.60;;;;;;5054417;28;20045;-85
2022/04/20 12:49:41;;;;;;;1.95;1.67;;;30.20;28.00;;;;;;5054780;28;20049;-86
2022/04/20 12:52:14;;;;;;;3.17;1.52;;;30.30;27.50;;;;;;5053108;28;20045;-86
2022/04/20 12:54:51;;;;;;;2.10;1.42;;;30.40;27.80;;;;;;5054452;28;20175;-87
2022/04/20 13:03:16;;;;;;;6.13;1.58;;;29.50;27.90;;;;;;5036790;28;20041;-86
2022/04/20 13:05:44;;;;;;;3.00;1.55;;;28.90;27.90;;;;;;5052381;28;20084;-87
2022/04/20 13:08:12;;;;;;;1.92;1.40;;;29.10;28.30;;;;;;5054113;28;20455;-86
2022/04/20 13:10:40;;;;;;;2.45;1.45;;;29.20;28.40;;;;;;5054177;28;20049;-86
2022/04/20 13:13:07;;;;;;;3.30;1.70;;;29.20;27.70;;;;;;5019986;28;20044;-87
2022/04/20 13:15:34;;;;;;;3.42;1.35;;;28.90;27.80;;;;;;5035972;28;20057;-86
2022/04/20 13:18:00;;;;;;;2.00;1.75;;;28.70;28.20;;;;;;5036216;28;20059;-86
2022/04/20 13:20:41;;;;;;;5.72;1.40;;;28.60;28.50;;;;;;5019682;28;20127;-88
2022/04/20 13:23:07;;;;;;;3.45;1.77;;;28.50;28.20;;;;;;5036191;28;20561;-85
2022/04/20 13:28:17;;;;;;;3.95;2.67;;;27.50;29.30;;;;;;5036245;28;20195;-86
2022/04/20 13:30:46;;;;;;;6.00;1.90;;;27.50;29.20;;;;;;5036078;28;20120;-86
2022/04/20 13:33:14;;;;;;;3.40;2.17;;;27.80;29.00;;;;;;5035936;28;20037;-86
2022/04/20 13:35:41;;;;;;;2.85;2.22;;;28.20;28.80;;;;;;5019016;28;20509;-86
2022/04/20 13:38:07;;;;;;;4.35;2.40;;;28.50;29.30;;;;;;5035983;28;20110;-86
2022/04/20 13:40:38;;;;;;;3.03;2.03;;;28.40;29.20;;;;;;5019947;28;20052;-86
2022/04/20 13:43:06;;;;;;;5.53;2.03;;;28.40;28.80;;;;;;5035675;28;20111;-87
2022/04/20 13:45:32;;;;;;;5.30;2.50;;;28.50;29.00;;;;;;5035645;28;20049;-86
2022/04/20 13:47:58;;;;;;;4.13;2.00;;;28.30;29.10;;;;;;5053469;28;20128;-86
2022/04/20 13:50:24;;;;;;;4.47;2.47;;;28.20;29.50;;;;;;5019288;28;20136;-87